createdAt,value
2022-10-08T00:00:51.549Z,12.00
2022-10-08T00:03:19.890Z,12.30
2022-10-08T00:06:01.855Z,11.73
2022-10-08T00:08:29.947Z,12.27
2022-10-08T00:11:01.805Z,12.17
2022-10-08T00:13:40.563Z,12.83
2022-10-08T00:16:19.504Z,12.30
2022-10-08T00:18:48.205Z,11.13
2022-10-08T00:21:18.324Z,12.87
2022-10-08T00:23:49.407Z,12.43
2022-10-08T00:26:18.675Z,12.63
2022-10-08T00:28:47.135Z,12.17
2022-10-08T00:31:20.587Z,12.67
2022-10-08T00:33:51.669Z,12.83
2022-10-08T00:36:18.525Z,12.13
2022-10-08T00:38:45.185Z,13.60
2022-10-08T00:41:21.143Z,12.93
2022-10-08T00:43:50.550Z,12.43
2022-10-08T00:46:25.931Z,12.67
2022-10-08T00:49:16.722Z,13.20
2022-10-08T00:51:52.353Z,13.37
2022-10-08T00:54:21.702Z,13.07
2022-10-08T00:56:54.044Z,13.37
2022-10-08T00:59:21.625Z,13.07
2022-10-08T01:01:48.360Z,12.70
2022-10-08T01:04:16.016Z,12.57
2022-10-08T01:06:56.350Z,13.37
2022-10-08T01:09:48.544Z,12.80
2022-10-08T01:12:24.389Z,13.17
2022-10-08T01:14:51.009Z,12.67
2022-10-08T01:17:37.323Z,13.07
2022-10-08T01:20:12.632Z,12.90
2022-10-08T01:22:54.268Z,12.40
2022-10-08T01:25:35.699Z,12.30
2022-10-08T01:28:04.654Z,13.50
2022-10-08T01:30:35.325Z,12.90
2022-10-08T01:33:14.911Z,12.60
2022-10-08T01:35:46.696Z,12.03
2022-10-08T01:38:19.298Z,13.07
2022-10-08T01:40:48.291Z,12.90
2022-10-08T01:43:18.532Z,12.83
2022-10-08T01:45:51.867Z,12.97
2022-10-08T01:48:32.204Z,12.80
2022-10-08T01:51:12.755Z,12.33
2022-10-08T01:53:45.924Z,13.43
2022-10-08T01:56:18.391Z,12.73
2022-10-08T01:58:49.887Z,12.90
2022-10-08T02:01:27.735Z,12.97
2022-10-08T02:04:13.370Z,13.00
2022-10-08T02:06:49.982Z,12.63
2022-10-08T02:09:16.843Z,12.73
2022-10-08T02:11:43.587Z,12.83
2022-10-08T02:14:11.732Z,12.87
2022-10-08T02:16:47.837Z,13.47
2022-10-08T02:19:29.393Z,12.33
2022-10-08T02:21:59.555Z,12.40
2022-10-08T02:24:38.014Z,12.33
2022-10-08T02:27:08.308Z,12.23
2022-10-08T02:29:43.900Z,12.17
2022-10-08T02:32:19.208Z,11.73
2022-10-08T02:34:53.204Z,11.87
2022-10-08T02:37:24.849Z,10.57
2022-10-08T02:39:57.870Z,12.13
2022-10-08T02:42:27.289Z,11.90
2022-10-08T02:45:00.353Z,12.43
2022-10-08T02:47:30.727Z,12.13
2022-10-08T02:50:02.612Z,12.63
2022-10-08T02:52:39.381Z,12.27
2022-10-08T02:55:23.076Z,11.63
2022-10-08T02:58:00.064Z,12.00
2022-10-08T03:00:31.178Z,12.80
2022-10-08T03:03:13.280Z,12.73
2022-10-08T03:05:42.223Z,12.43
2022-10-08T03:08:12.130Z,12.73
2022-10-08T03:10:40.957Z,11.77
2022-10-08T03:13:08.688Z,12.83
2022-10-08T03:15:37.113Z,12.23
2022-10-08T03:18:08.572Z,12.87
2022-10-08T03:20:42.501Z,12.53
2022-10-08T03:23:09.141Z,12.57
2022-10-08T03:25:35.797Z,12.23
2022-10-08T03:28:02.495Z,12.90
2022-10-08T03:30:29.206Z,12.33
2022-10-08T03:32:55.887Z,12.50
2022-10-08T03:35:22.669Z,11.70
2022-10-08T03:37:49.401Z,11.70
2022-10-08T03:40:16.067Z,11.13
2022-10-08T03:42:42.684Z,11.30
2022-10-08T03:45:09.573Z,11.70
2022-10-08T03:47:36.213Z,12.33
2022-10-08T03:50:03.014Z,11.20
2022-10-08T03:52:30.699Z,12.03
2022-10-08T03:54:57.377Z,12.47
2022-10-08T03:57:24.357Z,12.00
2022-10-08T03:59:50.987Z,12.03
2022-10-08T04:02:17.668Z,12.83
2022-10-08T04:04:44.445Z,12.13
2022-10-08T04:07:11.105Z,12.37
2022-10-08T04:09:37.762Z,12.17
2022-10-08T04:12:04.441Z,11.90
2022-10-08T04:14:31.092Z,11.50
2022-10-08T04:16:57.722Z,12.53
2022-10-08T04:19:24.408Z,12.50
2022-10-08T04:21:51.068Z,12.77
2022-10-08T04:24:17.684Z,11.90
2022-10-08T04:26:44.419Z,12.00
2022-10-08T04:29:12.561Z,12.30
2022-10-08T04:31:40.404Z,11.97
2022-10-08T04:34:07.292Z,11.23
2022-10-08T04:36:33.923Z,11.73
2022-10-08T04:39:00.686Z,11.53
2022-10-08T04:41:27.941Z,11.27
2022-10-08T04:44:00.142Z,11.80
2022-10-08T04:46:26.953Z,11.87
2022-10-08T04:48:55.308Z,11.67
2022-10-08T04:51:24.544Z,12.97
2022-10-08T04:53:52.235Z,12.37
2022-10-08T04:56:22.595Z,12.77
2022-10-08T04:58:49.317Z,11.63
2022-10-08T05:01:18.507Z,12.20
2022-10-08T05:03:47.986Z,11.60
2022-10-08T05:06:16.434Z,12.03
2022-10-08T05:08:44.468Z,11.90
2022-10-08T05:11:11.522Z,12.27
2022-10-08T05:13:38.279Z,12.93
2022-10-08T05:16:11.291Z,11.80
2022-10-08T05:18:39.116Z,12.47
2022-10-08T05:21:08.115Z,11.40
2022-10-08T05:23:35.991Z,12.37
2022-10-08T05:26:15.724Z,11.53
2022-10-08T05:28:43.771Z,10.93
2022-10-08T05:31:10.956Z,11.10
2022-10-08T05:33:37.954Z,12.40
2022-10-08T05:36:06.570Z,11.20
2022-10-08T05:38:35.259Z,11.47
2022-10-08T05:41:13.501Z,12.90
2022-10-08T05:43:40.888Z,11.73
2022-10-08T05:46:07.922Z,11.40
2022-10-08T05:48:35.252Z,11.10
2022-10-08T05:51:17.758Z,11.87
2022-10-08T05:53:47.722Z,11.80
2022-10-08T05:56:16.776Z,11.73
2022-10-08T05:58:44.460Z,11.93
2022-10-08T06:01:26.217Z,12.00
2022-10-08T06:03:55.274Z,11.73
2022-10-08T06:06:23.602Z,12.00
2022-10-08T06:08:55.949Z,11.67
2022-10-08T06:11:22.631Z,11.97
2022-10-08T06:13:56.928Z,11.87
2022-10-08T06:16:24.602Z,11.90
2022-10-08T06:18:51.356Z,12.17
2022-10-08T06:21:21.736Z,11.57
2022-10-08T06:23:57.353Z,11.83
2022-10-08T06:26:30.494Z,11.10
2022-10-08T06:28:59.808Z,10.90
2022-10-08T06:31:26.571Z,11.60
2022-10-08T06:33:57.583Z,11.77
2022-10-08T06:36:28.560Z,10.43
2022-10-08T06:38:57.577Z,9.83
2022-10-08T06:41:25.144Z,9.90
2022-10-08T06:43:52.397Z,11.40
2022-10-08T06:46:20.098Z,12.50
2022-10-08T06:48:47.142Z,11.50
2022-10-08T06:51:17.563Z,11.13
2022-10-08T06:53:47.646Z,11.27
2022-10-08T06:56:15.489Z,10.50
2022-10-08T06:58:43.691Z,11.27
2022-10-08T07:01:21.865Z,11.30
2022-10-08T07:03:53.376Z,11.00
2022-10-08T07:06:20.705Z,11.90
2022-10-08T07:08:50.968Z,10.67
2022-10-08T07:11:18.917Z,12.03
2022-10-08T07:13:45.757Z,10.23
2022-10-08T07:16:21.161Z,11.03
2022-10-08T07:18:50.634Z,12.27
2022-10-08T07:21:19.916Z,12.93
2022-10-08T07:23:50.558Z,12.65
2022-10-08T07:26:25.684Z,12.40
2022-10-08T07:28:53.816Z,13.83
2022-10-08T07:31:29.870Z,14.20
2022-10-08T07:33:58.120Z,13.73
2022-10-08T07:36:26.282Z,11.40
2022-10-08T07:38:57.822Z,11.53
2022-10-08T07:41:25.405Z,10.83
2022-10-08T07:43:54.089Z,13.27
2022-10-08T07:46:21.458Z,12.90
2022-10-08T07:48:48.335Z,12.87
2022-10-08T07:51:17.533Z,12.90
2022-10-08T07:53:45.173Z,12.00
2022-10-08T07:56:14.021Z,11.33
2022-10-08T07:58:41.410Z,10.77
2022-10-08T08:01:11.216Z,9.77
2022-10-08T08:03:38.051Z,12.73
2022-10-08T08:06:09.853Z,13.20
2022-10-08T08:08:37.970Z,13.33
2022-10-08T08:11:06.482Z,13.40
2022-10-08T08:13:37.196Z,13.53
2022-10-08T08:16:07.324Z,12.43
2022-10-08T08:18:36.797Z,12.70
2022-10-08T08:21:09.791Z,13.27
2022-10-08T08:23:41.418Z,13.03
2022-10-08T08:26:14.909Z,13.07
2022-10-08T08:28:41.699Z,12.60
2022-10-08T08:31:23.320Z,12.67
2022-10-08T08:33:52.759Z,12.70
2022-10-08T08:36:20.898Z,13.17
2022-10-08T08:38:47.668Z,13.67
2022-10-08T08:41:38.926Z,13.30
2022-10-08T08:44:18.210Z,12.80
2022-10-08T08:46:54.016Z,12.60
2022-10-08T08:49:28.358Z,11.60
2022-10-08T08:51:56.900Z,12.50
2022-10-08T08:54:24.273Z,12.13
2022-10-08T08:56:52.553Z,10.20
2022-10-08T08:59:25.107Z,10.80
2022-10-08T09:01:56.251Z,10.07
2022-10-08T09:04:45.079Z,8.87
2022-10-08T09:07:16.564Z,9.17
2022-10-08T09:09:48.164Z,9.10
2022-10-08T09:12:51.624Z,8.70
2022-10-08T09:15:26.813Z,7.70
2022-10-08T09:17:53.519Z,7.20
2022-10-08T09:20:25.522Z,6.97
2022-10-08T09:22:54.059Z,7.00
2022-10-08T09:25:26.508Z,5.40
2022-10-08T09:28:01.280Z,5.20
2022-10-08T09:30:37.275Z,5.40
2022-10-08T09:33:19.428Z,5.07
2022-10-08T09:35:52.334Z,5.83
2022-10-08T09:38:26.190Z,4.70
2022-10-08T09:40:59.771Z,4.13
2022-10-08T09:43:26.600Z,3.77
2022-10-08T09:45:54.742Z,4.03
2022-10-08T09:48:29.123Z,3.00
2022-10-08T09:50:58.679Z,3.17
2022-10-08T09:53:29.561Z,3.53
2022-10-08T09:56:00.289Z,3.00
2022-10-08T09:58:30.884Z,2.73
2022-10-08T10:01:07.315Z,3.10
2022-10-08T10:03:35.820Z,2.73
2022-10-08T10:06:03.135Z,2.40
2022-10-08T10:09:10.859Z,2.40
2022-10-08T10:11:51.167Z,2.10
2022-10-08T10:14:35.132Z,2.60
2022-10-08T10:17:33.818Z,2.10
2022-10-08T10:20:06.074Z,2.10
2022-10-08T10:22:41.006Z,2.20
2022-10-08T10:25:28.705Z,2.10
2022-10-08T10:28:01.577Z,2.10
2022-10-08T10:30:29.025Z,2.23
2022-10-08T10:33:14.814Z,2.23
2022-10-08T10:35:50.400Z,1.93
2022-10-08T10:38:24.541Z,2.50
2022-10-08T10:40:55.196Z,1.77
2022-10-08T10:43:44.275Z,1.97
2022-10-08T10:46:22.361Z,2.37
2022-10-08T10:48:49.773Z,2.23
2022-10-08T10:51:19.326Z,2.10
2022-10-08T10:53:52.004Z,2.50
2022-10-08T10:56:20.883Z,1.80
2022-10-08T10:59:19.820Z,2.30
2022-10-08T11:02:43.686Z,2.40
2022-10-08T11:05:22.781Z,2.23
2022-10-08T11:08:10.915Z,2.00
2022-10-08T11:10:40.651Z,2.00
2022-10-08T11:13:32.035Z,1.80
2022-10-08T11:16:23.249Z,1.77
2022-10-08T11:18:59.233Z,1.27
2022-10-08T11:21:38.228Z,1.90
2022-10-08T11:24:24.754Z,1.70
2022-10-08T11:27:07.048Z,1.80
2022-10-08T11:29:54.874Z,1.50
2022-10-08T11:32:22.696Z,1.57
2022-10-08T11:35:03.518Z,1.63
2022-10-08T11:37:41.677Z,1.50
2022-10-08T11:40:28.332Z,1.53
2022-10-08T11:43:13.046Z,1.73
2022-10-08T11:45:42.620Z,1.50
2022-10-08T11:48:34.057Z,1.27
2022-10-08T11:51:19.131Z,1.40
2022-10-08T11:54:09.471Z,1.50
2022-10-08T11:56:49.263Z,1.50
2022-10-08T11:59:34.760Z,1.60
2022-10-08T12:02:17.947Z,1.73
2022-10-08T12:04:48.408Z,1.53
2022-10-08T12:07:15.040Z,1.87
2022-10-08T12:10:06.008Z,1.60
2022-10-08T12:12:51.419Z,1.60
2022-10-08T12:15:40.393Z,1.90
2022-10-08T12:18:27.343Z,2.23
2022-10-08T12:21:15.952Z,1.87
2022-10-08T12:23:46.649Z,1.53
2022-10-08T12:26:16.567Z,1.50
2022-10-08T12:28:43.323Z,1.60
2022-10-08T12:31:42.145Z,1.20
2022-10-08T12:34:18.894Z,1.70
2022-10-08T12:37:16.656Z,1.30
2022-10-08T12:39:45.620Z,1.30
2022-10-08T12:42:18.966Z,1.20
2022-10-08T12:44:57.372Z,1.40
2022-10-08T12:47:36.022Z,1.70
2022-10-08T12:50:32.669Z,1.30
2022-10-08T12:53:01.203Z,1.70
2022-10-08T12:55:28.910Z,1.20
2022-10-08T12:57:55.718Z,1.50
2022-10-08T13:00:25.291Z,1.40
2022-10-08T13:03:20.192Z,1.00
2022-10-08T13:05:47.733Z,1.00
2022-10-08T13:08:35.139Z,1.00
2022-10-08T13:11:09.118Z,1.40
2022-10-08T13:13:38.872Z,1.23
2022-10-08T13:16:18.173Z,1.30
2022-10-08T13:18:53.017Z,1.60
2022-10-08T13:21:31.676Z,1.33
2022-10-08T13:24:11.204Z,1.00
2022-10-08T13:26:45.570Z,1.40
2022-10-08T13:29:21.310Z,1.50
2022-10-08T13:32:04.633Z,1.20
2022-10-08T13:34:40.321Z,1.63
2022-10-08T13:37:15.365Z,1.67
2022-10-08T13:39:50.708Z,1.30
2022-10-08T13:42:20.365Z,1.10
2022-10-08T13:44:47.277Z,1.47
2022-10-08T13:47:16.859Z,1.07
2022-10-08T13:49:44.477Z,1.00
2022-10-08T13:52:20.421Z,1.03
2022-10-08T13:54:47.973Z,1.30
2022-10-08T13:57:14.778Z,1.33
2022-10-08T13:59:42.281Z,1.10
2022-10-08T14:02:13.874Z,1.37
2022-10-08T14:04:40.912Z,1.20
2022-10-08T14:07:18.705Z,1.17
2022-10-08T14:09:45.493Z,1.40
2022-10-08T14:12:12.301Z,1.10
2022-10-08T14:14:38.963Z,1.30
2022-10-08T14:17:05.635Z,1.40
2022-10-08T14:19:32.323Z,1.67
2022-10-08T14:21:59.802Z,1.00
2022-10-08T14:24:26.475Z,1.10
2022-10-08T14:26:53.172Z,1.27
2022-10-08T14:29:19.904Z,1.00
2022-10-08T14:31:46.732Z,1.30
2022-10-08T14:34:13.476Z,1.30
2022-10-08T14:36:41.886Z,1.27
2022-10-08T14:39:10.067Z,1.63
2022-10-08T14:41:38.037Z,1.30
2022-10-08T14:44:04.783Z,1.47
2022-10-08T14:46:31.658Z,1.23
2022-10-08T14:48:58.449Z,1.00
2022-10-08T14:51:25.164Z,1.10
2022-10-08T14:53:52.637Z,1.20
2022-10-08T14:56:19.413Z,0.80
2022-10-08T14:58:46.257Z,1.20
2022-10-08T15:01:12.930Z,1.10
2022-10-08T15:03:39.680Z,1.00
2022-10-08T15:06:06.652Z,0.80
2022-10-08T15:08:33.933Z,1.30
2022-10-08T15:11:03.321Z,1.17
2022-10-08T15:13:30.225Z,1.03
2022-10-08T15:15:57.046Z,1.10
2022-10-08T15:18:24.467Z,1.00
2022-10-08T15:20:59.571Z,1.23
2022-10-08T15:23:27.253Z,1.20
2022-10-08T15:26:02.148Z,1.10
2022-10-08T15:28:29.928Z,1.20
2022-10-08T15:31:04.016Z,1.10
2022-10-08T15:33:30.649Z,0.77
2022-10-08T15:35:57.391Z,1.13
2022-10-08T15:38:24.132Z,1.40
2022-10-08T15:40:50.793Z,1.10
2022-10-08T15:43:17.679Z,1.20
2022-10-08T15:45:44.770Z,1.00
2022-10-08T15:48:16.718Z,1.03
2022-10-08T15:50:43.476Z,1.20
2022-10-08T15:53:10.293Z,1.40
2022-10-08T15:55:36.936Z,1.23
2022-10-08T15:58:03.615Z,1.80
2022-10-08T16:00:32.585Z,1.53
2022-10-08T16:03:02.630Z,1.20
2022-10-08T16:05:29.310Z,1.57
2022-10-08T16:07:56.385Z,1.53
2022-10-08T16:10:23.109Z,1.47
2022-10-08T16:12:51.315Z,1.60
2022-10-08T16:15:17.943Z,1.63
2022-10-08T16:17:44.625Z,1.40
2022-10-08T16:20:11.307Z,1.30
2022-10-08T16:22:37.999Z,1.50
2022-10-08T16:25:05.064Z,1.67
2022-10-08T16:27:31.769Z,1.40
2022-10-08T16:29:58.467Z,2.00
2022-10-08T16:32:25.201Z,1.60
2022-10-08T16:34:53.571Z,1.77
2022-10-08T16:37:20.380Z,1.43
2022-10-08T16:39:47.450Z,1.90
2022-10-08T16:42:14.141Z,1.60
2022-10-08T16:44:40.828Z,1.73
2022-10-08T16:47:07.532Z,2.07
2022-10-08T16:49:34.237Z,1.50
2022-10-08T16:52:08.194Z,1.87
2022-10-08T16:54:35.043Z,2.27
2022-10-08T16:57:02.083Z,1.90
2022-10-08T16:59:29.861Z,1.87
2022-10-08T17:01:58.564Z,2.53
2022-10-08T17:04:27.728Z,2.23
2022-10-08T17:06:54.508Z,1.90
2022-10-08T17:09:21.457Z,2.07
2022-10-08T17:11:48.482Z,2.20
2022-10-08T17:14:15.584Z,2.53
2022-10-08T17:16:45.776Z,1.97
2022-10-08T17:19:12.669Z,2.77
2022-10-08T17:21:39.624Z,2.93
2022-10-08T17:24:06.695Z,3.10
2022-10-08T17:26:33.590Z,3.37
2022-10-08T17:29:05.587Z,2.70
2022-10-08T17:31:33.297Z,2.93
2022-10-08T17:34:01.081Z,3.30
2022-10-08T17:36:30.264Z,2.70
2022-10-08T17:38:58.982Z,2.43
2022-10-08T17:41:29.516Z,3.07
2022-10-08T17:43:58.864Z,3.87
2022-10-08T17:46:28.133Z,2.90
2022-10-08T17:48:55.278Z,2.73
2022-10-08T17:51:24.501Z,4.00
2022-10-08T17:53:53.619Z,3.37
2022-10-08T17:56:21.169Z,3.90
2022-10-08T17:58:48.136Z,5.40
2022-10-08T18:01:18.763Z,3.60
2022-10-08T18:03:54.725Z,4.23
2022-10-08T18:06:22.404Z,3.90
2022-10-08T18:08:53.611Z,4.30
2022-10-08T18:11:20.342Z,4.20
2022-10-08T18:13:47.276Z,3.60
2022-10-08T18:16:16.631Z,3.50
2022-10-08T18:18:44.363Z,3.57
2022-10-08T18:21:13.498Z,3.00
2022-10-08T18:23:43.581Z,3.50
2022-10-08T18:26:27.949Z,2.73
2022-10-08T18:28:57.315Z,3.17
2022-10-08T18:31:29.816Z,3.13
2022-10-08T18:33:58.840Z,3.43
2022-10-08T18:36:28.427Z,3.80
2022-10-08T18:39:00.572Z,3.43
2022-10-08T18:41:29.422Z,3.67
2022-10-08T18:43:56.783Z,3.90
2022-10-08T18:46:23.817Z,3.67
2022-10-08T18:48:50.496Z,3.37
2022-10-08T18:51:22.908Z,2.80
2022-10-08T18:53:51.625Z,3.23
2022-10-08T18:56:28.781Z,3.57
2022-10-08T18:59:01.725Z,3.53
2022-10-08T19:01:37.366Z,4.00
2022-10-08T19:04:06.353Z,3.17
2022-10-08T19:06:36.448Z,4.23
2022-10-08T19:09:03.901Z,3.43
2022-10-08T19:11:41.867Z,3.10
2022-10-08T19:14:13.013Z,3.63
2022-10-08T19:16:40.780Z,3.20
2022-10-08T19:19:12.036Z,3.40
2022-10-08T19:21:39.087Z,3.27
2022-10-08T19:24:07.904Z,3.90
2022-10-08T19:26:34.629Z,3.87
2022-10-08T19:29:01.513Z,4.07
2022-10-08T19:31:31.434Z,4.40
2022-10-08T19:34:04.322Z,3.77
2022-10-08T19:36:33.528Z,4.10
2022-10-08T19:39:02.642Z,3.60
2022-10-08T19:41:29.818Z,3.30
2022-10-08T19:43:57.760Z,3.80
2022-10-08T19:46:26.040Z,4.07
2022-10-08T19:48:58.047Z,3.40
2022-10-08T19:51:26.129Z,3.77
2022-10-08T19:53:53.271Z,3.63
2022-10-08T19:56:21.397Z,3.60
2022-10-08T19:58:50.201Z,4.07
2022-10-08T20:01:39.258Z,4.20
2022-10-08T20:04:07.473Z,3.70
2022-10-08T20:06:38.523Z,3.40
2022-10-08T20:09:07.387Z,3.47
2022-10-08T20:11:34.160Z,3.27
2022-10-08T20:14:01.051Z,3.47
2022-10-08T20:16:33.639Z,3.50
2022-10-08T20:19:22.480Z,3.57
2022-10-08T20:21:50.429Z,4.40
2022-10-08T20:24:18.335Z,4.00
2022-10-08T20:26:45.454Z,4.17
2022-10-08T20:29:17.910Z,11.00
2022-10-08T20:31:48.783Z,4.90
2022-10-08T20:34:19.464Z,5.43
2022-10-08T20:36:47.723Z,4.90
2022-10-08T20:39:15.912Z,5.10
2022-10-08T20:41:43.673Z,5.53
2022-10-08T20:44:10.469Z,5.50
2022-10-08T20:46:38.142Z,5.87
2022-10-08T20:49:05.917Z,5.00
2022-10-08T20:51:33.593Z,4.60
2022-10-08T20:54:05.623Z,4.97
2022-10-08T20:56:39.214Z,5.23
2022-10-08T20:59:06.982Z,4.60
2022-10-08T21:01:38.010Z,5.60
2022-10-08T21:04:06.166Z,5.50
2022-10-08T21:06:45.011Z,5.00
2022-10-08T21:09:12.723Z,5.70
2022-10-08T21:11:40.547Z,5.73
2022-10-08T21:14:09.025Z,5.40
2022-10-08T21:16:38.671Z,5.23
2022-10-08T21:19:09.861Z,6.43
2022-10-08T21:21:36.569Z,11.00
2022-10-08T21:24:03.361Z,7.63
2022-10-08T21:26:32.819Z,9.00
2022-10-08T21:29:01.644Z,9.13
2022-10-08T21:31:31.107Z,8.10
2022-10-08T21:33:59.578Z,7.20
2022-10-08T21:36:32.122Z,7.00
2022-10-08T21:39:00.342Z,7.40
2022-10-08T21:41:30.524Z,7.63
2022-10-08T21:43:59.894Z,7.33
2022-10-08T21:46:31.000Z,7.67
2022-10-08T21:49:10.709Z,7.53
2022-10-08T21:51:37.926Z,6.83
2022-10-08T21:54:06.670Z,7.23
2022-10-08T21:56:36.089Z,7.10
2022-10-08T21:59:05.093Z,6.60
2022-10-08T22:01:44.373Z,7.30
2022-10-08T22:04:16.965Z,7.10
2022-10-08T22:06:52.298Z,7.43
2022-10-08T22:09:30.162Z,7.50
2022-10-08T22:11:58.672Z,7.00
2022-10-08T22:14:25.932Z,6.13
2022-10-08T22:16:53.217Z,6.13
2022-10-08T22:19:20.166Z,5.50
2022-10-08T22:21:47.106Z,5.43
2022-10-08T22:24:14.151Z,5.67
2022-10-08T22:26:43.868Z,5.50
2022-10-08T22:29:11.538Z,5.67
2022-10-08T22:31:38.928Z,5.67
2022-10-08T22:34:07.113Z,5.43
2022-10-08T22:36:39.216Z,5.73
2022-10-08T22:39:06.577Z,5.80
2022-10-08T22:41:34.307Z,6.13
2022-10-08T22:44:02.778Z,6.13
2022-10-08T22:46:40.323Z,5.53
2022-10-08T22:49:09.791Z,6.00
2022-10-08T22:51:37.343Z,5.57
2022-10-08T22:54:04.198Z,5.20
2022-10-08T22:56:32.021Z,6.10
2022-10-08T22:59:00.071Z,5.30
2022-10-08T23:01:28.308Z,5.50
2022-10-08T23:03:54.976Z,5.30
2022-10-08T23:06:32.577Z,5.30
2022-10-08T23:09:02.189Z,6.10
2022-10-08T23:11:30.088Z,5.73
2022-10-08T23:13:58.408Z,5.10
2022-10-08T23:16:27.118Z,5.57
2022-10-08T23:19:01.951Z,5.50
2022-10-08T23:21:29.294Z,5.17
2022-10-08T23:23:56.855Z,5.07
2022-10-08T23:26:24.537Z,5.57
2022-10-08T23:28:54.002Z,5.37
2022-10-08T23:31:24.154Z,5.20
2022-10-08T23:33:52.309Z,4.80
2022-10-08T23:36:24.655Z,5.10
2022-10-08T23:38:52.012Z,4.80
2022-10-08T23:41:19.535Z,4.67
2022-10-08T23:43:48.021Z,4.77
2022-10-08T23:46:16.582Z,4.87
2022-10-08T23:48:43.421Z,5.07
2022-10-08T23:51:11.542Z,5.43
2022-10-08T23:53:38.964Z,5.20
2022-10-08T23:56:06.000Z,5.03
2022-10-08T23:58:33.131Z,5.40
